Data for 12/25/2010

Time Sea-Level Adjusted Pressure Absolute Pressure Temperature Relative Humidity Dew Point   
(mb) (inHg) (mb) (inHg) (C) (F) (%) (C) (F)
00:05 1023 30.21 852 25.16 -5 22.9 77 -8.5 16.7
00:10 1023 30.21 852 25.16 -5 22.9 76 -8.6 16.6
00:15 1023 30.21 852 25.16 -5 23 76 -8.5 16.6
00:20 1023 30.21 852 25.16 -5.2 22.7 76 -8.7 16.3
00:25 1023 30.21 852 25.16 -5.6 21.9 79 -8.7 16.3
00:30 1023 30.21 852 25.16 -6.3 20.7 78 -9.5 14.9
00:35 1023 30.21 852 25.16 -6.6 20.1 79 -9.6 14.7
00:40 1023 30.21 852 25.16 -6.2 20.8 76 -9.7 14.5
00:45 1023 30.21 852 25.16 -6.1 21.1 77 -9.4 15.1
00:50 1023 30.21 852 25.16 -5.7 21.7 77 -9.2 15.4
00:55 1023 30.21 852 25.16 -5 22.9 74 -9 15.8
01:00 1023 30.21 852 25.16 -4.5 23.8 73 -8.7 16.4
01:05 1023 30.21 852 25.16 -3.8 25.2 70 -8.6 16.5
01:10 1023 30.21 852 25.16 -3.4 25.9 68 -8.5 16.7
01:15 1023 30.21 852 25.16 -3 26.6 66 -8.4 16.8
01:20 1023 30.21 852 25.16 -3.7 25.4 69 -8.6 16.6
01:25 1023 30.21 852 25.16 -3.7 25.3 68 -8.9 16
01:30 1023 30.21 852 25.16 -4.4 24.1 75 -8.3 17.1
01:35 1022 30.18 852 25.16 -4.6 23.7 73 -8.7 16.3
01:40 1022 30.18 852 25.16 -4.9 23.2 74 -8.7 16.3
01:45 1023 30.21 852 25.16 -4.6 23.6 70 -9.4 15.1
01:50 1023 30.21 852 25.16 -4.6 23.8 73 -8.8 16.2
01:55 1023 30.21 852 25.16 -4.5 23.9 72 -8.8 16.2
02:00 1023 30.21 852 25.16 -4.3 24.2 72 -8.7 16.3
02:05 1023 30.21 852 25.16 -4.2 24.4 70 -8.9 16
02:10 1023 30.21 852 25.16 -4.1 24.6 70 -8.8 16.1
02:15 1023 30.21 852 25.16 -4.3 24.2 71 -8.8 16.2
02:20 1023 30.21 852 25.16 -4.8 23.4 75 -8.6 16.4
02:25 1023 30.21 852 25.16 -4.6 23.7 72 -9 15.9
02:30 1023 30.21 852 25.16 -4.2 24.4 72 -8.6 16.6
02:35 1023 30.21 852 25.16 -3.8 25.2 69 -8.7 16.4
02:40 1022 30.18 852 25.16 -3.2 26.2 68 -8.3 17
02:45 1022 30.18 852 25.16 -3 26.6 67 -8.4 16.9
02:50 1022 30.18 852 25.16 -3 26.7 66 -8.4 16.8
02:55 1022 30.18 852 25.16 -3.3 26.1 69 -8.1 17.4
03:00 1022 30.18 852 25.16 -3.6 25.5 68 -8.7 16.4
03:05 1022 30.18 852 25.16 -4.2 24.4 71 -8.8 16.1
03:10 1022 30.18 852 25.16 -3.8 25.1 70 -8.6 16.6
03:15 1022 30.18 851 25.13 -3.7 25.4 68 -8.6 16.4
03:20 1022 30.18 851 25.13 -4.1 24.7 71 -8.6 16.5
03:25 1022 30.18 851 25.13 -4.4 24.1 73 -8.6 16.6
03:30 1022 30.18 851 25.13 -4.3 24.2 71 -8.8 16.2
03:35 1022 30.18 851 25.13 -4.2 24.4 70 -8.9 16.1
03:40 1022 30.18 851 25.13 -4.3 24.3 72 -8.6 16.5
03:45 1022 30.18 851 25.13 -4.4 24.1 73 -8.6 16.5
03:50 1022 30.18 851 25.13 -4.7 23.6 73 -8.8 16.2
03:55 1022 30.18 851 25.13 -4.5 24 72 -8.7 16.3
04:00 1022 30.18 851 25.13 -4.4 24.1 71 -9 15.9
04:05 1022 30.18 851 25.13 -4.6 23.8 71 -9 15.7
04:10 1022 30.18 851 25.13 -4.9 23.2 73 -9 15.8
04:15 1022 30.18 851 25.13 -5.3 22.5 76 -8.9 16
04:20 1022 30.18 851 25.13 -5.6 21.9 76 -9.1 15.6
04:25 1022 30.18 851 25.13 -6 21.3 77 -9.3 15.2
04:30 1022 30.18 851 25.13 -6.2 20.9 81 -9 15.8
04:35 1022 30.18 851 25.13 -6.3 20.7 81 -9.1 15.6
04:40 1022 30.18 851 25.13 -6.3 20.6 79 -9.5 15
04:45 1022 30.18 851 25.13 -6.7 20 81 -9.4 15.1
04:50 1022 30.18 851 25.13 -6.9 19.6 83 -9.2 15.4
04:55 1022 30.18 851 25.13 -6.8 19.8 81 -9.4 15
05:00 1022 30.18 851 25.13 -6.6 20 80 -9.5 14.9
05:05 1022 30.18 851 25.13 -6.4 20.4 80 -9.3 15.2
05:10 1022 30.18 851 25.13 -6.2 20.8 79 -9.2 15.4
05:15 1022 30.18 851 25.13 -6.1 21.1 80 -9 15.8
05:20 1022 30.18 851 25.13 -5.8 21.5 77 -9.2 15.4
05:25 1022 30.18 851 25.13 -6.1 20.9 77 -9.6 14.8
05:30 1022 30.18 851 25.13 -7.3 18.8 84 -9.6 14.7
05:35 1022 30.18 851 25.13 -6.9 19.6 82 -9.4 15
05:40 1022 30.18 851 25.13 -6.4 20.6 80 -9.3 15.3
05:45 1021 30.15 851 25.13 -5.8 21.5 77 -9.2 15.5
05:50 1021 30.15 851 25.13 -5.6 21.9 76 -9.2 15.5
05:55 1021 30.15 851 25.13 -5.6 21.8 77 -9.1 15.6
06:00 1021 30.15 850 25.1 -5.6 21.9 77 -9 15.8
06:05 1021 30.15 850 25.1 -5.6 21.8 76 -9.3 15.3
06:10 1021 30.15 850 25.1 -6.2 20.9 79 -9.3 15.3
06:15 1021 30.15 850 25.1 -6 21.2 75 -9.7 14.6
06:20 1021 30.15 850 25.1 -5.8 21.5 74 -9.7 14.5
06:25 1021 30.15 850 25.1 -4.8 23.4 71 -9.3 15.3
06:30 1021 30.15 850 25.1 -4.2 24.5 71 -8.7 16.3
06:35 1021 30.15 850 25.1 -4.2 24.5 71 -8.7 16.4
06:40 1021 30.15 850 25.1 -4.1 24.6 71 -8.7 16.3
06:45 1021 30.15 850 25.1 -5.1 22.9 70 -9.7 14.6
06:50 1021 30.15 850 25.1 -5.1 22.9 74 -9 15.7
06:55 1021 30.15 850 25.1 -4.8 23.4 72 -9.1 15.6
07:00 1021 30.15 850 25.1 -4.5 23.8 70 -9.1 15.6
07:05 1021 30.15 850 25.1 -4.3 24.3 68 -9.2 15.4
07:10 1021 30.15 850 25.1 -4.4 24 72 -8.7 16.3
07:15 1021 30.15 850 25.1 -4.2 24.4 70 -9 15.8
07:20 1021 30.15 850 25.1 -4.6 23.8 73 -8.7 16.3
07:25 1021 30.15 850 25.1 -4.3 24.2 72 -8.7 16.3
07:30 1021 30.15 850 25.1 -4.3 24.3 70 -9 15.7
07:35 1021 30.15 850 25.1 -4.7 23.5 73 -8.8 16.1
07:40 1021 30.15 850 25.1 -5.1 22.9 74 -9 15.8
07:45 1021 30.15 850 25.1 -5.2 22.7 76 -8.8 16.2
07:50 1021 30.15 850 25.1 -4.7 23.5 72 -9.1 15.7
07:55 1021 30.15 850 25.1 -4.3 24.2 71 -8.9 16.1
08:00 1021 30.15 850 25.1 -4.5 24 71 -8.9 16
08:05 1021 30.15 850 25.1 -4.6 23.6 72 -9 15.8
08:10 1021 30.15 850 25.1 -4.5 23.9 71 -9 15.8
08:15 1021 30.15 850 25.1 -4.4 24 71 -8.9 15.9
08:20 1021 30.15 850 25.1 -4.6 23.6 72 -8.9 15.9
08:25 1021 30.15 850 25.1 -4.7 23.5 73 -8.8 16.2
08:30 1021 30.15 850 25.1 -4.7 23.5 73 -8.8 16.2
08:35 1021 30.15 850 25.1 -4.8 23.4 74 -8.7 16.3
08:40 1021 30.15 850 25.1 -4.6 23.7 72 -9 15.8
08:45 1021 30.15 850 25.1 -4.8 23.4 72 -9 15.8
08:50 1021 30.15 850 25.1 -4.9 23.3 72 -9.2 15.5
08:55 1021 30.15 850 25.1 -4.9 23.2 73 -9.1 15.6
09:00 1021 30.15 850 25.1 -4.9 23.2 72 -9.2 15.5
09:05 1021 30.15 850 25.1 -4.9 23.2 72 -9.1 15.6
09:10 1021 30.15 850 25.1 -4.9 23.2 71 -9.3 15.2
09:15 1021 30.15 850 25.1 -4.7 23.5 72 -8.9 15.9
09:20 1021 30.15 850 25.1 -4.7 23.5 70 -9.3 15.2
09:25 1021 30.15 850 25.1 -4.8 23.4 70 -9.5 15
09:30 1021 30.15 850 25.1 -4.9 23.2 72 -9.3 15.3
09:35 1021 30.15 850 25.1 -5.1 22.9 71 -9.5 14.8
09:40 1021 30.15 850 25.1 -5.2 22.7 72 -9.5 14.9
09:45 1021 30.15 850 25.1 -5.2 22.6 71 -9.6 14.7
09:50 1021 30.15 850 25.1 -5 23 71 -9.4 15
09:55 1021 30.15 850 25.1 -4.6 23.7 68 -9.6 14.8
10:00 1021 30.15 850 25.1 -4.4 24.1 69 -9.2 15.5
10:05 1021 30.15 850 25.1 -4.4 24 72 -8.8 16.1
10:10 1021 30.15 850 25.1 -4.6 23.8 72 -8.9 15.9
10:15 1021 30.15 850 25.1 -4.3 24.2 69 -9.1 15.6
10:20 1021 30.15 850 25.1 -4.1 24.7 68 -9.1 15.6
10:25 1021 30.15 850 25.1 -4.1 24.7 70 -8.8 16.1
10:30 1021 30.15 850 25.1 -3.8 25.1 67 -9.1 15.6
10:35 1021 30.15 850 25.1 -3.6 25.4 67 -8.9 16
10:40 1021 30.15 850 25.1 -2.7 27.1 63 -8.9 16
10:45 1021 30.15 850 25.1 -2.4 27.7 63 -8.4 16.8
10:50 1021 30.15 850 25.1 -3 26.7 65 -8.6 16.6
10:55 1021 30.15 850 25.1 -2.5 27.5 62 -8.8 16.2
11:00 1021 30.15 850 25.1 -2 28.5 60 -8.7 16.4
11:05 1021 30.15 850 25.1 -1.6 29.1 61 -8.1 17.4
11:10 1021 30.15 850 25.1 -1.7 28.9 61 -8.2 17.2
11:15 1021 30.15 850 25.1 -1.6 29.1 60 -8.3 17
11:20 1020 30.12 850 25.1 -1.3 29.6 59 -8.3 17
11:25 1020 30.12 850 25.1 -1.2 29.8 58 -8.4 16.8
11:30 1020 30.12 849 25.07 -1 30.2 59 -8.1 17.4
11:35 1020 30.12 849 25.07 -0.7 30.7 57 -8.2 17.2
11:40 1020 30.12 849 25.07 -1.5 29.4 58 -8.6 16.5
11:45 1020 30.12 849 25.07 -1.3 29.6 58 -8.5 16.7
11:50 1020 30.12 849 25.07 -0.7 30.7 56 -8.4 17
11:55 1020 30.12 849 25.07 -0.2 31.6 56 -8 17.5
12:00 1020 30.12 849 25.07 -0.1 31.9 53 -8.4 16.8
12:05 1020 30.12 849 25.07 0.7 33.2 51 -8.3 17.1
12:10 1019 30.09 849 25.07 1.7 35 50 -7.8 18
12:15 1019 30.09 848 25.04 1.8 35.3 49 -7.8 17.9
12:20 1019 30.09 848 25.04 1.8 35.3 47 -8.3 17.1
12:25 1019 30.09 848 25.04 1.8 35.3 48 -8 17.6
12:30 1019 30.09 848 25.04 2.6 36.7 44 -8.4 16.9
12:35 1019 30.09 848 25.04 2.9 37.3 45 -7.9 17.7
12:40 1019 30.09 848 25.04 2.6 36.7 47 -7.7 18.2
12:45 1019 30.09 848 25.04 2.7 36.9 47 -7.6 18.3
12:50 1019 30.09 848 25.04 2.9 37.3 45 -7.9 17.7
12:55 1019 30.09 848 25.04 3.3 38 44 -7.8 18
13:00 1019 30.09 848 25.04 3.1 37.5 47 -7.2 19.1
13:05 1019 30.09 848 25.04 2.6 36.7 48 -7.4 18.7
13:10 1018 30.06 848 25.04 3.2 37.8 46 -7.4 18.6
13:15 1018 30.06 848 25.04 3.4 38.2 45 -7.4 18.6
13:20 1018 30.06 848 25.04 3.7 38.6 44 -7.5 18.5
13:25 1018 30.06 848 25.04 3.6 38.5 46 -7 19.4
13:30 1018 30.06 848 25.04 3.3 37.9 47 -7 19.4
13:35 1018 30.06 848 25.04 3.1 37.5 46 -7.4 18.7
13:40 1018 30.06 848 25.04 2.5 36.5 51 -6.7 20
13:45 1018 30.06 848 25.04 1.7 35.1 52 -7.2 19.1
13:50 1018 30.06 847 25.01 2.2 36 51 -6.9 19.5
13:55 1018 30.06 847 25.01 2.5 36.5 49 -7.3 18.9
14:00 1018 30.06 847 25.01 2.4 36.3 48 -7.4 18.6
14:05 1018 30.06 847 25.01 2.9 37.2 46 -7.5 18.4
14:10 1018 30.06 847 25.01 2.4 36.3 51 -6.8 19.7
14:15 1018 30.06 847 25.01 1.9 35.4 49 -7.6 18.3
14:20 1018 30.06 847 25.01 2.2 36 48 -7.7 18.2
14:25 1018 30.06 847 25.01 2.3 36.2 48 -7.6 18.4
14:30 1018 30.06 847 25.01 2.3 36.1 49 -7.4 18.7
14:35 1018 30.06 847 25.01 1.3 34.3 55 -6.7 19.9
14:40 1018 30.06 847 25.01 -0.2 31.7 58 -7.5 18.5
14:45 1018 30.06 847 25.01 -0.2 31.6 58 -7.4 18.6
14:50 1018 30.06 847 25.01 -0.2 31.7 57 -7.7 18.2
14:55 1018 30.06 847 25.01 0.8 33.5 53 -7.8 18
15:00 1018 30.06 847 25.01 1.3 34.4 52 -7.4 18.6
15:05 1018 30.06 847 25.01 1.3 34.3 53 -7.4 18.7
15:10 1018 30.06 847 25.01 0.4 32.7 56 -7.5 18.6
15:15 1018 30.06 847 25.01 -0.4 31.2 59 -7.5 18.6
15:20 1018 30.06 847 25.01 -0.9 30.3 60 -7.8 17.9
15:25 1018 30.06 847 25.01 -1.5 29.4 65 -7.3 18.9
15:30 1018 30.06 847 25.01 -2.1 28.2 64 -7.9 17.7
15:35 1018 30.06 847 25.01 -2 28.5 64 -7.9 17.7
15:40 1018 30.06 847 25.01 -2.1 28.3 65 -7.8 18
15:45 1018 30.06 847 25.01 -2.3 27.9 64 -8.1 17.4
15:50 1018 30.06 847 25.01 -2.3 27.8 65 -8.1 17.5
15:55 1018 30.06 847 25.01 -2.3 27.9 66 -7.8 17.9
16:00 1018 30.06 847 25.01 -2.3 27.9 64 -8.3 17.1
16:05 1018 30.06 847 25.01 -2 28.4 62 -8.3 17
16:10 1017 30.03 847 25.01 -2 28.4 62 -8.3 17
16:15 1017 30.03 846 24.98 -2.9 26.9 67 -8.2 17.2
16:20 1017 30.03 846 24.98 -3.1 26.4 66 -8.5 16.7
16:25 1017 30.03 846 24.98 -3.3 26.1 66 -8.8 16.2
16:30 1017 30.03 846 24.98 -3.4 25.9 65 -9 15.8
16:35 1017 30.03 846 24.98 -2.7 27.1 63 -8.8 16.2
16:40 1017 30.03 846 24.98 -1.4 29.4 59 -8.4 16.9
16:45 1017 30.03 846 24.98 -1.5 29.3 60 -8.3 17
16:50 1017 30.03 846 24.98 -2.1 28.3 62 -8.4 16.9
16:55 1017 30.03 846 24.98 -1.7 29 60 -8.4 16.8
17:00 1017 30.03 846 24.98 -1.8 28.7 62 -8.2 17.3
17:05 1017 30.03 846 24.98 -2.6 27.3 64 -8.4 16.8
17:10 1017 30.03 846 24.98 -2.6 27.3 64 -8.5 16.7
17:15 1017 30.03 846 24.98 -2.4 27.7 62 -8.6 16.5
17:20 1017 30.03 846 24.98 -2.5 27.6 64 -8.4 16.9
17:25 1017 30.03 846 24.98 -2.5 27.5 64 -8.4 16.8
17:30 1017 30.03 846 24.98 -2.1 28.2 60 -8.9 16
17:35 1017 30.03 846 24.98 -2.2 28.1 63 -8.3 17.1
17:40 1017 30.03 846 24.98 -2.3 27.9 62 -8.6 16.6
17:45 1017 30.03 846 24.98 -2.4 27.6 64 -8.3 17.1
17:50 1017 30.03 846 24.98 -2.1 28.2 59 -9.2 15.5
17:55 1017 30.03 846 24.98 -1.6 29.2 58 -8.7 16.3
18:00 1017 30.03 846 24.98 -2.1 28.3 61 -8.6 16.4
18:05 1017 30.03 846 24.98 -2.5 27.4 61 -9 15.8
18:10 1017 30.03 846 24.98 -2.2 28.1 59 -9.3 15.3
18:15 1017 30.03 846 24.98 -2.3 27.8 62 -8.6 16.5
18:20 1017 30.03 846 24.98 -2.9 26.9 61 -9.4 15
18:25 1017 30.03 846 24.98 -2.4 27.6 58 -9.6 14.8
18:30 1016 30 846 24.98 -2 28.4 58 -9.3 15.3
18:35 1016 30 845 24.95 -2 28.3 58 -9.3 15.3
18:40 1016 30 845 24.95 -1.8 28.7 57 -9.2 15.5
18:45 1016 30 845 24.95 -1.5 29.3 57 -8.9 16
18:50 1016 30 845 24.95 -1.8 28.8 57 -9.1 15.6
18:55 1016 30 845 24.95 -1.9 28.6 58 -9.1 15.7
19:00 1016 30 845 24.95 -1.6 29.1 57 -9.1 15.5
19:05 1016 30 845 24.95 -0.9 30.3 54 -9.2 15.4
19:10 1016 30 845 24.95 -1.1 29.9 56 -8.9 16
19:15 1016 30 845 24.95 -0.8 30.6 55 -8.7 16.3
19:20 1016 30 845 24.95 -1.3 29.6 57 -8.7 16.4
19:25 1016 30 845 24.95 -1.5 29.3 57 -8.9 16
19:30 1016 30 845 24.95 -1.2 29.9 53 -9.6 14.6
19:35 1015 29.97 845 24.95 -0.4 31.2 53 -8.9 16.1
19:40 1015 29.97 845 24.95 -0.8 30.6 54 -8.8 16.1
19:45 1015 29.97 844 24.92 -1 30.2 57 -8.5 16.7
19:50 1015 29.97 844 24.92 -1.6 29.2 56 -9.1 15.5
19:55 1015 29.97 844 24.92 -1.4 29.5 56 -9.1 15.6
20:00 1015 29.97 844 24.92 -1 30.1 55 -9.1 15.7
20:05 1015 29.97 844 24.92 -1 30.1 57 -8.4 16.8
20:10 1015 29.97 844 24.92 -1.3 29.7 57 -8.8 16.2
20:15 1015 29.97 844 24.92 -1.6 29.1 57 -9.1 15.6
20:20 1015 29.97 844 24.92 -1.5 29.3 56 -9.1 15.6
20:25 1015 29.97 844 24.92 -1.3 29.7 56 -9 15.9
20:30 1015 29.97 844 24.92 -1.5 29.3 57 -8.9 16
20:35 1015 29.97 844 24.92 -1.7 28.9 59 -8.8 16.2
20:40 1015 29.97 844 24.92 -2 28.5 59 -8.9 15.9
20:45 1015 29.97 844 24.92 -1.9 28.6 59 -8.9 16
20:50 1014 29.94 844 24.92 -2 28.4 61 -8.6 16.5
20:55 1014 29.94 844 24.92 -2.2 28 62 -8.5 16.6
21:00 1014 29.94 844 24.92 -2.8 26.9 64 -8.6 16.4
21:05 1014 29.94 844 24.92 -3.1 26.5 67 -8.4 16.8
21:10 1014 29.94 844 24.92 -3 26.7 63 -9 15.8
21:15 1014 29.94 844 24.92 -2.6 27.3 62 -9 15.8
21:20 1014 29.94 844 24.92 -2.3 27.8 60 -9.1 15.7
21:25 1014 29.94 844 24.92 -2.3 27.8 62 -8.7 16.3
21:30 1014 29.94 844 24.92 -2.5 27.4 62 -8.8 16.2
21:35 1014 29.94 843 24.89 -2.6 27.2 62 -9 15.9
21:40 1014 29.94 843 24.89 -2.5 27.5 62 -8.8 16.1
21:45 1014 29.94 843 24.89 -2.6 27.2 63 -8.8 16.2
21:50 1014 29.94 843 24.89 -2.4 27.7 60 -9.1 15.6
21:55 1014 29.94 843 24.89 -1.8 28.8 59 -8.9 16
22:00 1014 29.94 843 24.89 -1.8 28.7 60 -8.7 16.3
22:05 1014 29.94 843 24.89 -1.8 28.8 60 -8.7 16.4
22:10 1014 29.94 843 24.89 -2.1 28.2 63 -8.3 17.1
22:15 1014 29.94 843 24.89 -2.4 27.6 60 -9.2 15.4
22:20 1014 29.94 843 24.89 -1.9 28.6 61 -8.5 16.8
22:25 1014 29.94 843 24.89 -2.2 28 60 -8.9 16
22:30 1013 29.91 843 24.89 -1.7 29 57 -9.2 15.5
22:35 1013 29.91 843 24.89 -1.2 29.9 55 -9.1 15.6
22:40 1013 29.91 842 24.86 -1.1 30 55 -9.1 15.6
22:45 1013 29.91 842 24.86 -0.7 30.8 55 -8.6 16.5
22:50 1013 29.91 842 24.86 -1.2 29.8 57 -8.6 16.4
22:55 1013 29.91 842 24.86 -1.3 29.6 58 -8.6 16.6
23:00 1013 29.91 842 24.86 -1 30.1 56 -8.7 16.3
23:05 1013 29.91 842 24.86 -0.7 30.8 55 -8.7 16.3
23:10 1013 29.91 842 24.86 -0.6 31 50 -9.7 14.6
23:15 1013 29.91 842 24.86 0.3 32.5 50 -9 15.8
23:20 1013 29.91 842 24.86 0.1 32.1 51 -8.9 16
23:25 1013 29.91 842 24.86 -0.2 31.7 58 -7.5 18.5
23:30 1013 29.91 842 24.86 -0.4 31.4 55 -8.4 16.9
23:35 1013 29.91 842 24.86 -0.6 30.9 56 -8.4 17
23:40 1013 29.91 842 24.86 0 32 52 -8.6 16.5
23:45 1013 29.91 842 24.86 0.2 32.4 47 -9.8 14.3
23:50 1013 29.91 842 24.86 0.9 33.6 50 -8.4 16.9
23:55 1013 29.91 842 24.86 -0.3 31.4 54 -8.5 16.7
24:00 1012 29.88 842 24.86 -0.4 31.2 53 -8.8 16.1